sensor_id;sensor_type;location;lat;lon;timestamp;P1;durP1;ratioP1;P2;durP2;ratioP2
55222;SDS011;41090;48.632;12.428;2022-11-15T00:01:54;18.40;;;16.50;;
55222;SDS011;41090;48.632;12.428;2022-11-15T00:04:19;21.00;;;17.57;;
55222;SDS011;41090;48.632;12.428;2022-11-15T00:06:44;20.77;;;18.47;;
55222;SDS011;41090;48.632;12.428;2022-11-15T00:09:09;20.23;;;17.47;;
55222;SDS011;41090;48.632;12.428;2022-11-15T00:11:35;18.93;;;16.87;;
55222;SDS011;41090;48.632;12.428;2022-11-15T00:14:00;20.20;;;18.10;;
55222;SDS011;41090;48.632;12.428;2022-11-15T00:16:27;20.50;;;17.50;;
55222;SDS011;41090;48.632;12.428;2022-11-15T00:18:52;20.37;;;17.77;;
55222;SDS011;41090;48.632;12.428;2022-11-15T00:21:17;18.53;;;15.97;;
55222;SDS011;41090;48.632;12.428;2022-11-15T00:23:43;18.33;;;16.43;;
55222;SDS011;41090;48.632;12.428;2022-11-15T00:26:12;19.23;;;16.50;;
55222;SDS011;41090;48.632;12.428;2022-11-15T00:28:38;19.90;;;16.97;;
55222;SDS011;41090;48.632;12.428;2022-11-15T00:31:04;18.77;;;16.10;;
55222;SDS011;41090;48.632;12.428;2022-11-15T00:33:30;17.70;;;14.53;;
55222;SDS011;41090;48.632;12.428;2022-11-15T00:38:30;16.13;;;14.43;;
55222;SDS011;41090;48.632;12.428;2022-11-15T00:40:55;15.10;;;13.63;;
55222;SDS011;41090;48.632;12.428;2022-11-15T00:43:20;15.83;;;14.13;;
55222;SDS011;41090;48.632;12.428;2022-11-15T00:45:45;15.00;;;13.43;;
55222;SDS011;41090;48.632;12.428;2022-11-15T00:48:12;16.53;;;14.77;;
55222;SDS011;41090;48.632;12.428;2022-11-15T00:50:37;18.43;;;15.43;;
55222;SDS011;41090;48.632;12.428;2022-11-15T00:53:02;21.73;;;16.63;;
55222;SDS011;41090;48.632;12.428;2022-11-15T00:55:27;24.57;;;18.73;;
55222;SDS011;41090;48.632;12.428;2022-11-15T00:57:53;28.30;;;19.13;;
55222;SDS011;41090;48.632;12.428;2022-11-15T01:00:18;28.33;;;20.20;;
55222;SDS011;41090;48.632;12.428;2022-11-15T01:02:43;28.57;;;18.80;;
55222;SDS011;41090;48.632;12.428;2022-11-15T01:05:08;23.13;;;17.40;;
55222;SDS011;41090;48.632;12.428;2022-11-15T01:07:34;27.80;;;19.10;;
55222;SDS011;41090;48.632;12.428;2022-11-15T01:09:59;23.20;;;17.30;;
55222;SDS011;41090;48.632;12.428;2022-11-15T01:12:25;20.30;;;15.73;;
55222;SDS011;41090;48.632;12.428;2022-11-15T01:14:51;19.13;;;15.50;;
55222;SDS011;41090;48.632;12.428;2022-11-15T01:17:16;20.10;;;16.00;;
55222;SDS011;41090;48.632;12.428;2022-11-15T01:19:41;22.80;;;17.30;;
55222;SDS011;41090;48.632;12.428;2022-11-15T01:22:06;21.13;;;17.07;;
55222;SDS011;41090;48.632;12.428;2022-11-15T01:24:32;20.57;;;15.90;;
55222;SDS011;41090;48.632;12.428;2022-11-15T01:26:57;19.73;;;16.40;;
55222;SDS011;41090;48.632;12.428;2022-11-15T01:29:22;18.07;;;15.63;;
55222;SDS011;41090;48.632;12.428;2022-11-15T01:31:48;18.50;;;15.77;;
55222;SDS011;41090;48.632;12.428;2022-11-15T01:34:14;17.77;;;15.87;;
55222;SDS011;41090;48.632;12.428;2022-11-15T01:36:40;17.30;;;15.37;;
55222;SDS011;41090;48.632;12.428;2022-11-15T01:39:05;17.37;;;15.50;;
55222;SDS011;41090;48.632;12.428;2022-11-15T01:41:31;16.90;;;15.03;;
55222;SDS011;41090;48.632;12.428;2022-11-15T01:44:28;20.87;;;15.83;;
55222;SDS011;41090;48.632;12.428;2022-11-15T01:46:42;17.33;;;15.40;;
55222;SDS011;41090;48.632;12.428;2022-11-15T01:49:20;17.50;;;15.47;;
55222;SDS011;41090;48.632;12.428;2022-11-15T01:51:46;15.90;;;14.20;;
55222;SDS011;41090;48.632;12.428;2022-11-15T01:54:12;17.07;;;15.17;;
55222;SDS011;41090;48.632;12.428;2022-11-15T01:56:41;17.97;;;15.73;;
55222;SDS011;41090;48.632;12.428;2022-11-15T01:59:08;17.83;;;15.83;;
55222;SDS011;41090;48.632;12.428;2022-11-15T02:01:33;18.43;;;16.30;;
55222;SDS011;41090;48.632;12.428;2022-11-15T02:03:59;18.10;;;15.00;;
55222;SDS011;41090;48.632;12.428;2022-11-15T02:06:26;17.00;;;15.00;;
55222;SDS011;41090;48.632;12.428;2022-11-15T02:08:51;16.30;;;14.60;;
55222;SDS011;41090;48.632;12.428;2022-11-15T02:11:16;17.63;;;15.47;;
55222;SDS011;41090;48.632;12.428;2022-11-15T02:13:42;27.00;;;19.43;;
55222;SDS011;41090;48.632;12.428;2022-11-15T02:18:59;25.13;;;19.77;;
55222;SDS011;41090;48.632;12.428;2022-11-15T02:21:28;32.70;;;21.43;;
55222;SDS011;41090;48.632;12.428;2022-11-15T02:29:07;25.77;;;20.80;;
55222;SDS011;41090;48.632;12.428;2022-11-15T02:31:49;22.90;;;18.90;;
55222;SDS011;41090;48.632;12.428;2022-11-15T02:34:37;23.87;;;19.90;;
55222;SDS011;41090;48.632;12.428;2022-11-15T02:39:38;22.13;;;18.13;;
55222;SDS011;41090;48.632;12.428;2022-11-15T02:42:19;20.70;;;18.50;;
55222;SDS011;41090;48.632;12.428;2022-11-15T02:45:09;21.13;;;17.87;;
55222;SDS011;41090;48.632;12.428;2022-11-15T02:47:41;18.43;;;16.47;;
55222;SDS011;41090;48.632;12.428;2022-11-15T02:50:08;19.23;;;17.23;;
55222;SDS011;41090;48.632;12.428;2022-11-15T02:52:34;18.90;;;16.90;;
55222;SDS011;41090;48.632;12.428;2022-11-15T02:54:59;20.47;;;16.97;;
55222;SDS011;41090;48.632;12.428;2022-11-15T03:05:04;20.20;;;17.70;;
55222;SDS011;41090;48.632;12.428;2022-11-15T03:07:37;17.70;;;15.80;;
55222;SDS011;41090;48.632;12.428;2022-11-15T03:10:06;20.73;;;16.60;;
55222;SDS011;41090;48.632;12.428;2022-11-15T03:12:38;17.53;;;15.70;;
55222;SDS011;41090;48.632;12.428;2022-11-15T03:15:08;19.10;;;16.60;;
55222;SDS011;41090;48.632;12.428;2022-11-15T03:17:35;17.73;;;15.83;;
55222;SDS011;41090;48.632;12.428;2022-11-15T03:20:03;19.47;;;15.83;;
55222;SDS011;41090;48.632;12.428;2022-11-15T03:22:29;22.50;;;16.93;;
55222;SDS011;41090;48.632;12.428;2022-11-15T03:24:56;35.00;;;17.60;;
55222;SDS011;41090;48.632;12.428;2022-11-15T03:27:23;22.60;;;16.40;;
55222;SDS011;41090;48.632;12.428;2022-11-15T03:29:51;24.93;;;16.83;;
55222;SDS011;41090;48.632;12.428;2022-11-15T03:32:25;23.30;;;16.60;;
55222;SDS011;41090;48.632;12.428;2022-11-15T03:34:52;31.80;;;17.03;;
55222;SDS011;41090;48.632;12.428;2022-11-15T03:37:21;20.87;;;16.43;;
55222;SDS011;41090;48.632;12.428;2022-11-15T03:39:47;40.63;;;18.33;;
55222;SDS011;41090;48.632;12.428;2022-11-15T03:50:04;42.13;;;17.87;;
55222;SDS011;41090;48.632;12.428;2022-11-15T03:52:32;49.83;;;16.10;;
55222;SDS011;41090;48.632;12.428;2022-11-15T03:54:58;46.00;;;16.37;;
55222;SDS011;41090;48.632;12.428;2022-11-15T03:57:25;27.27;;;17.93;;
55222;SDS011;41090;48.632;12.428;2022-11-15T03:59:50;60.97;;;18.10;;
55222;SDS011;41090;48.632;12.428;2022-11-15T04:02:16;58.50;;;17.57;;
55222;SDS011;41090;48.632;12.428;2022-11-15T04:04:41;32.43;;;17.10;;
55222;SDS011;41090;48.632;12.428;2022-11-15T04:07:06;26.70;;;16.30;;
55222;SDS011;41090;48.632;12.428;2022-11-15T04:09:31;25.40;;;15.83;;
55222;SDS011;41090;48.632;12.428;2022-11-15T04:11:57;68.17;;;17.43;;
55222;SDS011;41090;48.632;12.428;2022-11-15T04:14:22;59.60;;;16.50;;
55222;SDS011;41090;48.632;12.428;2022-11-15T04:16:47;44.83;;;17.53;;
55222;SDS011;41090;48.632;12.428;2022-11-15T04:19:12;27.03;;;17.07;;
55222;SDS011;41090;48.632;12.428;2022-11-15T04:21:56;57.30;;;16.33;;
55222;SDS011;41090;48.632;12.428;2022-11-15T04:24:40;37.43;;;15.57;;
55222;SDS011;41090;48.632;12.428;2022-11-15T04:27:06;69.70;;;17.43;;
55222;SDS011;41090;48.632;12.428;2022-11-15T04:29:31;89.17;;;18.23;;
55222;SDS011;41090;48.632;12.428;2022-11-15T04:31:59;25.67;;;16.43;;
55222;SDS011;41090;48.632;12.428;2022-11-15T04:34:24;20.57;;;15.47;;
55222;SDS011;41090;48.632;12.428;2022-11-15T04:36:49;32.27;;;16.27;;
55222;SDS011;41090;48.632;12.428;2022-11-15T04:39:33;17.63;;;15.23;;
55222;SDS011;41090;48.632;12.428;2022-11-15T04:41:59;21.33;;;15.80;;
55222;SDS011;41090;48.632;12.428;2022-11-15T04:44:24;16.43;;;13.83;;
55222;SDS011;41090;48.632;12.428;2022-11-15T04:46:49;16.50;;;14.27;;
55222;SDS011;41090;48.632;12.428;2022-11-15T04:49:14;15.57;;;13.87;;
55222;SDS011;41090;48.632;12.428;2022-11-15T04:51:40;16.47;;;13.73;;
55222;SDS011;41090;48.632;12.428;2022-11-15T04:54:05;16.13;;;13.47;;
55222;SDS011;41090;48.632;12.428;2022-11-15T04:56:30;15.10;;;12.77;;
55222;SDS011;41090;48.632;12.428;2022-11-15T04:58:55;15.23;;;12.73;;
55222;SDS011;41090;48.632;12.428;2022-11-15T05:01:21;20.63;;;13.50;;
55222;SDS011;41090;48.632;12.428;2022-11-15T05:03:46;15.10;;;12.80;;
55222;SDS011;41090;48.632;12.428;2022-11-15T05:06:30;16.47;;;13.30;;
55222;SDS011;41090;48.632;12.428;2022-11-15T05:08:56;17.77;;;14.13;;
55222;SDS011;41090;48.632;12.428;2022-11-15T05:11:21;16.97;;;14.03;;
55222;SDS011;41090;48.632;12.428;2022-11-15T05:13:47;16.07;;;14.20;;
55222;SDS011;41090;48.632;12.428;2022-11-15T05:16:12;14.10;;;12.60;;
55222;SDS011;41090;48.632;12.428;2022-11-15T05:18:37;14.37;;;12.87;;
55222;SDS011;41090;48.632;12.428;2022-11-15T05:21:10;20.30;;;12.87;;
55222;SDS011;41090;48.632;12.428;2022-11-15T05:23:36;15.53;;;12.77;;
55222;SDS011;41090;48.632;12.428;2022-11-15T05:26:02;58.83;;;14.40;;
55222;SDS011;41090;48.632;12.428;2022-11-15T05:28:27;25.10;;;13.70;;
55222;SDS011;41090;48.632;12.428;2022-11-15T05:30:52;25.97;;;13.03;;
55222;SDS011;41090;48.632;12.428;2022-11-15T05:33:18;13.50;;;12.20;;
55222;SDS011;41090;48.632;12.428;2022-11-15T05:35:45;25.63;;;13.03;;
55222;SDS011;41090;48.632;12.428;2022-11-15T05:38:11;101.37;;;14.57;;
55222;SDS011;41090;48.632;12.428;2022-11-15T05:40:37;134.37;;;15.23;;
55222;SDS011;41090;48.632;12.428;2022-11-15T05:43:02;137.67;;;15.40;;
55222;SDS011;41090;48.632;12.428;2022-11-15T05:45:28;96.80;;;14.13;;
55222;SDS011;41090;48.632;12.428;2022-11-15T05:47:54;203.80;;;18.80;;
55222;SDS011;41090;48.632;12.428;2022-11-15T05:50:21;154.13;;;17.17;;
55222;SDS011;41090;48.632;12.428;2022-11-15T05:52:46;41.27;;;14.17;;
55222;SDS011;41090;48.632;12.428;2022-11-15T05:55:12;94.90;;;15.47;;
55222;SDS011;41090;48.632;12.428;2022-11-15T05:57:37;83.50;;;15.23;;
55222;SDS011;41090;48.632;12.428;2022-11-15T06:00:03;65.23;;;14.57;;
55222;SDS011;41090;48.632;12.428;2022-11-15T06:02:29;76.97;;;15.53;;
55222;SDS011;41090;48.632;12.428;2022-11-15T06:04:54;57.17;;;14.30;;
55222;SDS011;41090;48.632;12.428;2022-11-15T06:07:19;66.47;;;25.50;;
55222;SDS011;41090;48.632;12.428;2022-11-15T06:09:44;37.33;;;22.13;;
55222;SDS011;41090;48.632;12.428;2022-11-15T06:12:10;20.33;;;16.57;;
55222;SDS011;41090;48.632;12.428;2022-11-15T06:14:35;38.63;;;20.50;;
55222;SDS011;41090;48.632;12.428;2022-11-15T06:17:00;16.90;;;14.10;;
55222;SDS011;41090;48.632;12.428;2022-11-15T06:19:25;21.60;;;17.37;;
55222;SDS011;41090;48.632;12.428;2022-11-15T06:21:51;25.00;;;20.47;;
55222;SDS011;41090;48.632;12.428;2022-11-15T06:24:16;17.27;;;15.47;;
55222;SDS011;41090;48.632;12.428;2022-11-15T06:26:41;13.70;;;12.30;;
55222;SDS011;41090;48.632;12.428;2022-11-15T06:29:06;12.30;;;11.20;;
55222;SDS011;41090;48.632;12.428;2022-11-15T06:31:33;15.77;;;11.80;;
55222;SDS011;41090;48.632;12.428;2022-11-15T06:33:58;13.17;;;11.80;;
55222;SDS011;41090;48.632;12.428;2022-11-15T06:36:23;13.33;;;12.07;;
55222;SDS011;41090;48.632;12.428;2022-11-15T06:38:48;12.27;;;11.07;;
55222;SDS011;41090;48.632;12.428;2022-11-15T06:41:14;13.17;;;11.77;;
55222;SDS011;41090;48.632;12.428;2022-11-15T06:43:39;12.77;;;11.33;;
55222;SDS011;41090;48.632;12.428;2022-11-15T06:46:05;15.03;;;12.50;;
55222;SDS011;41090;48.632;12.428;2022-11-15T06:48:31;14.33;;;12.83;;
55222;SDS011;41090;48.632;12.428;2022-11-15T06:50:57;15.87;;;14.17;;
55222;SDS011;41090;48.632;12.428;2022-11-15T06:53:23;17.07;;;15.27;;
55222;SDS011;41090;48.632;12.428;2022-11-15T06:55:49;17.13;;;15.33;;
55222;SDS011;41090;48.632;12.428;2022-11-15T06:58:14;17.43;;;15.57;;
55222;SDS011;41090;48.632;12.428;2022-11-15T07:00:46;20.93;;;16.73;;
55222;SDS011;41090;48.632;12.428;2022-11-15T07:03:11;21.70;;;17.03;;
55222;SDS011;41090;48.632;12.428;2022-11-15T07:05:37;40.37;;;31.73;;
55222;SDS011;41090;48.632;12.428;2022-11-15T07:08:02;47.57;;;36.33;;
55222;SDS011;41090;48.632;12.428;2022-11-15T07:10:28;33.03;;;27.03;;
55222;SDS011;41090;48.632;12.428;2022-11-15T07:12:53;29.20;;;21.53;;
55222;SDS011;41090;48.632;12.428;2022-11-15T07:15:20;24.77;;;19.73;;
55222;SDS011;41090;48.632;12.428;2022-11-15T07:17:45;21.77;;;17.53;;
55222;SDS011;41090;48.632;12.428;2022-11-15T07:20:11;16.93;;;14.53;;
55222;SDS011;41090;48.632;12.428;2022-11-15T07:22:36;20.00;;;15.83;;
55222;SDS011;41090;48.632;12.428;2022-11-15T07:25:02;18.33;;;16.33;;
55222;SDS011;41090;48.632;12.428;2022-11-15T07:27:27;24.23;;;18.90;;
55222;SDS011;41090;48.632;12.428;2022-11-15T07:29:52;21.67;;;17.77;;
55222;SDS011;41090;48.632;12.428;2022-11-15T07:32:17;21.17;;;19.07;;
55222;SDS011;41090;48.632;12.428;2022-11-15T07:34:43;21.87;;;18.67;;
55222;SDS011;41090;48.632;12.428;2022-11-15T07:37:11;20.97;;;18.87;;
55222;SDS011;41090;48.632;12.428;2022-11-15T07:39:36;20.20;;;18.10;;
55222;SDS011;41090;48.632;12.428;2022-11-15T07:42:02;17.17;;;15.17;;
55222;SDS011;41090;48.632;12.428;2022-11-15T07:44:45;15.97;;;14.37;;
55222;SDS011;41090;48.632;12.428;2022-11-15T07:47:11;16.70;;;13.87;;
55222;SDS011;41090;48.632;12.428;2022-11-15T07:49:36;16.57;;;14.83;;
55222;SDS011;41090;48.632;12.428;2022-11-15T07:52:01;15.57;;;13.97;;
55222;SDS011;41090;48.632;12.428;2022-11-15T07:54:27;20.27;;;13.60;;
55222;SDS011;41090;48.632;12.428;2022-11-15T07:56:52;16.00;;;14.30;;
55222;SDS011;41090;48.632;12.428;2022-11-15T07:59:17;17.33;;;15.53;;
55222;SDS011;41090;48.632;12.428;2022-11-15T08:01:44;16.63;;;14.00;;
55222;SDS011;41090;48.632;12.428;2022-11-15T08:04:10;15.13;;;13.73;;
55222;SDS011;41090;48.632;12.428;2022-11-15T08:06:36;16.00;;;14.40;;
55222;SDS011;41090;48.632;12.428;2022-11-15T08:09:01;17.07;;;14.77;;
55222;SDS011;41090;48.632;12.428;2022-11-15T08:11:26;21.47;;;19.47;;
55222;SDS011;41090;48.632;12.428;2022-11-15T08:13:51;19.10;;;17.10;;
55222;SDS011;41090;48.632;12.428;2022-11-15T08:16:18;17.57;;;15.87;;
55222;SDS011;41090;48.632;12.428;2022-11-15T08:18:44;17.27;;;15.47;;
55222;SDS011;41090;48.632;12.428;2022-11-15T08:21:10;15.17;;;13.67;;
55222;SDS011;41090;48.632;12.428;2022-11-15T08:23:37;13.93;;;12.53;;
55222;SDS011;41090;48.632;12.428;2022-11-15T08:26:03;12.63;;;11.33;;
55222;SDS011;41090;48.632;12.428;2022-11-15T08:28:29;12.13;;;11.03;;
55222;SDS011;41090;48.632;12.428;2022-11-15T08:30:54;12.60;;;11.30;;
55222;SDS011;41090;48.632;12.428;2022-11-15T08:33:19;12.00;;;10.87;;
55222;SDS011;41090;48.632;12.428;2022-11-15T08:35:45;13.03;;;11.67;;
55222;SDS011;41090;48.632;12.428;2022-11-15T08:38:10;10.93;;;9.90;;
55222;SDS011;41090;48.632;12.428;2022-11-15T08:40:36;12.23;;;11.17;;
55222;SDS011;41090;48.632;12.428;2022-11-15T08:43:01;14.00;;;12.70;;
55222;SDS011;41090;48.632;12.428;2022-11-15T08:45:28;13.20;;;11.97;;
55222;SDS011;41090;48.632;12.428;2022-11-15T08:47:53;13.47;;;12.13;;
55222;SDS011;41090;48.632;12.428;2022-11-15T08:50:19;13.67;;;12.10;;
55222;SDS011;41090;48.632;12.428;2022-11-15T08:52:44;14.80;;;13.40;;
55222;SDS011;41090;48.632;12.428;2022-11-15T08:55:09;15.13;;;13.73;;
55222;SDS011;41090;48.632;12.428;2022-11-15T08:57:35;15.60;;;14.20;;
55222;SDS011;41090;48.632;12.428;2022-11-15T09:00:00;15.20;;;13.70;;
55222;SDS011;41090;48.632;12.428;2022-11-15T09:02:25;14.60;;;13.10;;
55222;SDS011;41090;48.632;12.428;2022-11-15T09:04:51;14.87;;;12.93;;
55222;SDS011;41090;48.632;12.428;2022-11-15T09:07:16;13.40;;;12.00;;
55222;SDS011;41090;48.632;12.428;2022-11-15T09:09:42;13.50;;;12.10;;
55222;SDS011;41090;48.632;12.428;2022-11-15T09:12:07;13.77;;;12.40;;
55222;SDS011;41090;48.632;12.428;2022-11-15T09:14:32;13.07;;;11.88;;
55222;SDS011;41090;48.632;12.428;2022-11-15T09:16:59;13.57;;;12.25;;
55222;SDS011;41090;48.632;12.428;2022-11-15T09:19:24;13.52;;;12.02;;
55222;SDS011;41090;48.632;12.428;2022-11-15T09:21:50;13.23;;;12.00;;
55222;SDS011;41090;48.632;12.428;2022-11-15T09:24:15;14.55;;;13.10;;
55222;SDS011;41090;48.632;12.428;2022-11-15T09:26:40;14.35;;;12.68;;
55222;SDS011;41090;48.632;12.428;2022-11-15T09:29:06;14.38;;;13.05;;
55222;SDS011;41090;48.632;12.428;2022-11-15T09:31:32;15.27;;;13.50;;
55222;SDS011;41090;48.632;12.428;2022-11-15T09:33:57;15.68;;;14.18;;
55222;SDS011;41090;48.632;12.428;2022-11-15T09:36:23;15.75;;;14.15;;
55222;SDS011;41090;48.632;12.428;2022-11-15T09:38:48;15.43;;;14.02;;
55222;SDS011;41090;48.632;12.428;2022-11-15T09:48:59;15.77;;;14.27;;
55222;SDS011;41090;48.632;12.428;2022-11-15T09:51:35;14.57;;;13.15;;
55222;SDS011;41090;48.632;12.428;2022-11-15T09:56:31;14.60;;;13.30;;
55222;SDS011;41090;48.632;12.428;2022-11-15T10:04:25;13.00;;;11.80;;
55222;SDS011;41090;48.632;12.428;2022-11-15T10:06:58;15.98;;;14.35;;
55222;SDS011;41090;48.632;12.428;2022-11-15T10:09:28;19.52;;;17.25;;
55222;SDS011;41090;48.632;12.428;2022-11-15T10:11:56;17.40;;;15.80;;
55222;SDS011;41090;48.632;12.428;2022-11-15T10:14:22;15.38;;;13.77;;
55222;SDS011;41090;48.632;12.428;2022-11-15T10:24:12;10.05;;;9.15;;
55222;SDS011;41090;48.632;12.428;2022-11-15T10:26:37;12.32;;;10.75;;
55222;SDS011;41090;48.632;12.428;2022-11-15T10:29:03;10.18;;;9.15;;
55222;SDS011;41090;48.632;12.428;2022-11-15T10:31:28;11.10;;;10.13;;
55222;SDS011;41090;48.632;12.428;2022-11-15T10:33:59;11.38;;;10.27;;
55222;SDS011;41090;48.632;12.428;2022-11-15T10:36:29;11.82;;;10.63;;
55222;SDS011;41090;48.632;12.428;2022-11-15T10:38:55;12.68;;;11.48;;
55222;SDS011;41090;48.632;12.428;2022-11-15T10:46:33;13.75;;;12.35;;
55222;SDS011;41090;48.632;12.428;2022-11-15T10:51:39;11.57;;;10.55;;
55222;SDS011;41090;48.632;12.428;2022-11-15T10:54:06;12.35;;;11.15;;
55222;SDS011;41090;48.632;12.428;2022-11-15T10:56:35;11.27;;;10.15;;
55222;SDS011;41090;48.632;12.428;2022-11-15T10:59:00;14.13;;;11.40;;
55222;SDS011;41090;48.632;12.428;2022-11-15T11:01:26;11.60;;;10.30;;
55222;SDS011;41090;48.632;12.428;2022-11-15T11:04:01;11.70;;;10.68;;
55222;SDS011;41090;48.632;12.428;2022-11-15T11:06:27;14.00;;;12.75;;
55222;SDS011;41090;48.632;12.428;2022-11-15T11:08:54;11.55;;;10.52;;
55222;SDS011;41090;48.632;12.428;2022-11-15T11:11:19;10.40;;;9.43;;
55222;SDS011;41090;48.632;12.428;2022-11-15T11:13:44;11.90;;;10.80;;
55222;SDS011;41090;48.632;12.428;2022-11-15T11:19:30;12.20;;;10.23;;
55222;SDS011;41090;48.632;12.428;2022-11-15T11:21:34;10.30;;;9.30;;
55222;SDS011;41090;48.632;12.428;2022-11-15T11:34:49;10.90;;;9.98;;
55222;SDS011;41090;48.632;12.428;2022-11-15T11:50:32;10.50;;;9.55;;
55222;SDS011;41090;48.632;12.428;2022-11-15T11:52:59;10.85;;;9.75;;
55222;SDS011;41090;48.632;12.428;2022-11-15T11:55:39;9.65;;;8.75;;
55222;SDS011;41090;48.632;12.428;2022-11-15T11:58:12;10.23;;;8.65;;
55222;SDS011;41090;48.632;12.428;2022-11-15T12:00:40;8.82;;;8.02;;
55222;SDS011;41090;48.632;12.428;2022-11-15T12:05:44;8.20;;;6.90;;
55222;SDS011;41090;48.632;12.428;2022-11-15T12:10:41;7.75;;;7.05;;
55222;SDS011;41090;48.632;12.428;2022-11-15T12:13:15;8.85;;;8.00;;
55222;SDS011;41090;48.632;12.428;2022-11-15T12:18:07;8.55;;;7.75;;
55222;SDS011;41090;48.632;12.428;2022-11-15T12:20:35;10.20;;;9.10;;
55222;SDS011;41090;48.632;12.428;2022-11-15T12:23:15;8.70;;;7.82;;
55222;SDS011;41090;48.632;12.428;2022-11-15T12:25:54;9.48;;;8.48;;
55222;SDS011;41090;48.632;12.428;2022-11-15T12:30:54;18.58;;;11.18;;
55222;SDS011;41090;48.632;12.428;2022-11-15T12:36:03;9.52;;;8.52;;
55222;SDS011;41090;48.632;12.428;2022-11-15T12:39:02;9.15;;;8.25;;
55222;SDS011;41090;48.632;12.428;2022-11-15T12:41:20;8.88;;;7.97;;
55222;SDS011;41090;48.632;12.428;2022-11-15T12:43:46;10.38;;;9.32;;
55222;SDS011;41090;48.632;12.428;2022-11-15T12:46:23;8.77;;;7.93;;
55222;SDS011;41090;48.632;12.428;2022-11-15T12:48:56;10.73;;;9.07;;
55222;SDS011;41090;48.632;12.428;2022-11-15T13:05:27;9.60;;;7.93;;
55222;SDS011;41090;48.632;12.428;2022-11-15T13:17:40;9.85;;;8.60;;
55222;SDS011;41090;48.632;12.428;2022-11-15T13:22:43;9.32;;;8.43;;
55222;SDS011;41090;48.632;12.428;2022-11-15T13:26:16;9.65;;;7.82;;
55222;SDS011;41090;48.632;12.428;2022-11-15T13:33:16;9.02;;;8.15;;
55222;SDS011;41090;48.632;12.428;2022-11-15T13:38:17;7.95;;;7.15;;
55222;SDS011;41090;48.632;12.428;2022-11-15T13:40:43;8.40;;;6.93;;
55222;SDS011;41090;48.632;12.428;2022-11-15T13:43:25;8.80;;;8.00;;
55222;SDS011;41090;48.632;12.428;2022-11-15T13:48:37;7.38;;;6.78;;
55222;SDS011;41090;48.632;12.428;2022-11-15T13:51:04;9.27;;;8.02;;
55222;SDS011;41090;48.632;12.428;2022-11-15T13:53:41;9.35;;;8.45;;
55222;SDS011;41090;48.632;12.428;2022-11-15T13:56:07;9.02;;;7.93;;
55222;SDS011;41090;48.632;12.428;2022-11-15T13:58:33;10.45;;;8.45;;
55222;SDS011;41090;48.632;12.428;2022-11-15T14:01:03;9.02;;;7.65;;
55222;SDS011;41090;48.632;12.428;2022-11-15T14:03:34;10.00;;;8.10;;
55222;SDS011;41090;48.632;12.428;2022-11-15T14:06:13;9.05;;;8.15;;
55222;SDS011;41090;48.632;12.428;2022-11-15T14:08:40;8.75;;;7.85;;
55222;SDS011;41090;48.632;12.428;2022-11-15T14:11:15;8.40;;;7.60;;
55222;SDS011;41090;48.632;12.428;2022-11-15T14:13:41;9.48;;;7.72;;
55222;SDS011;41090;48.632;12.428;2022-11-15T14:16:19;7.78;;;6.97;;
55222;SDS011;41090;48.632;12.428;2022-11-15T14:18:54;7.45;;;6.75;;
55222;SDS011;41090;48.632;12.428;2022-11-15T14:21:19;7.60;;;6.90;;
55222;SDS011;41090;48.632;12.428;2022-11-15T14:23:45;7.78;;;7.07;;
55222;SDS011;41090;48.632;12.428;2022-11-15T14:26:28;7.90;;;7.13;;
55222;SDS011;41090;48.632;12.428;2022-11-15T14:28:53;7.82;;;7.03;;
55222;SDS011;41090;48.632;12.428;2022-11-15T14:31:19;9.10;;;7.15;;
55222;SDS011;41090;48.632;12.428;2022-11-15T14:33:44;7.50;;;6.80;;
55222;SDS011;41090;48.632;12.428;2022-11-15T14:36:17;7.20;;;6.50;;
55222;SDS011;41090;48.632;12.428;2022-11-15T14:38:42;7.50;;;6.70;;
55222;SDS011;41090;48.632;12.428;2022-11-15T14:41:19;7.83;;;7.13;;
55222;SDS011;41090;48.632;12.428;2022-11-15T14:43:45;7.87;;;7.10;;
55222;SDS011;41090;48.632;12.428;2022-11-15T14:46:10;8.03;;;6.87;;
55222;SDS011;41090;48.632;12.428;2022-11-15T14:48:36;11.47;;;10.33;;
55222;SDS011;41090;48.632;12.428;2022-11-15T14:51:01;10.57;;;9.47;;
55222;SDS011;41090;48.632;12.428;2022-11-15T14:53:26;16.47;;;14.87;;
55222;SDS011;41090;48.632;12.428;2022-11-15T14:55:52;17.63;;;15.80;;
55222;SDS011;41090;48.632;12.428;2022-11-15T14:58:17;12.40;;;11.10;;
55222;SDS011;41090;48.632;12.428;2022-11-15T15:00:42;11.53;;;10.33;;
55222;SDS011;41090;48.632;12.428;2022-11-15T15:03:08;12.83;;;10.03;;
55222;SDS011;41090;48.632;12.428;2022-11-15T15:05:34;9.50;;;8.50;;
55222;SDS011;41090;48.632;12.428;2022-11-15T15:08:00;8.93;;;7.53;;
55222;SDS011;41090;48.632;12.428;2022-11-15T15:10:27;8.90;;;8.00;;
55222;SDS011;41090;48.632;12.428;2022-11-15T15:12:55;9.77;;;8.37;;
55222;SDS011;41090;48.632;12.428;2022-11-15T15:15:24;9.37;;;7.33;;
55222;SDS011;41090;48.632;12.428;2022-11-15T15:17:52;9.87;;;7.20;;
55222;SDS011;41090;48.632;12.428;2022-11-15T15:20:17;13.27;;;7.80;;
55222;SDS011;41090;48.632;12.428;2022-11-15T15:22:43;8.43;;;7.47;;
55222;SDS011;41090;48.632;12.428;2022-11-15T15:25:28;10.63;;;7.40;;
55222;SDS011;41090;48.632;12.428;2022-11-15T15:27:54;9.37;;;7.00;;
55222;SDS011;41090;48.632;12.428;2022-11-15T15:30:20;13.37;;;7.83;;
55222;SDS011;41090;48.632;12.428;2022-11-15T15:32:45;12.13;;;8.10;;
55222;SDS011;41090;48.632;12.428;2022-11-15T15:35:11;16.00;;;8.80;;
55222;SDS011;41090;48.632;12.428;2022-11-15T15:37:37;14.70;;;8.57;;
55222;SDS011;41090;48.632;12.428;2022-11-15T15:40:02;10.10;;;9.10;;
55222;SDS011;41090;48.632;12.428;2022-11-15T15:42:27;11.67;;;8.63;;
55222;SDS011;41090;48.632;12.428;2022-11-15T15:44:53;13.03;;;9.07;;
55222;SDS011;41090;48.632;12.428;2022-11-15T15:47:18;11.50;;;7.37;;
55222;SDS011;41090;48.632;12.428;2022-11-15T15:49:44;13.13;;;8.23;;
55222;SDS011;41090;48.632;12.428;2022-11-15T15:52:09;14.80;;;9.80;;
55222;SDS011;41090;48.632;12.428;2022-11-15T15:54:35;17.67;;;11.73;;
55222;SDS011;41090;48.632;12.428;2022-11-15T15:57:00;14.57;;;10.40;;
55222;SDS011;41090;48.632;12.428;2022-11-15T15:59:25;10.73;;;8.57;;
55222;SDS011;41090;48.632;12.428;2022-11-15T16:01:50;10.13;;;8.40;;
55222;SDS011;41090;48.632;12.428;2022-11-15T16:04:16;9.63;;;8.60;;
55222;SDS011;41090;48.632;12.428;2022-11-15T16:06:41;13.37;;;11.47;;
55222;SDS011;41090;48.632;12.428;2022-11-15T16:09:16;16.73;;;13.93;;
55222;SDS011;41090;48.632;12.428;2022-11-15T16:11:43;19.00;;;13.03;;
55222;SDS011;41090;48.632;12.428;2022-11-15T16:14:08;15.87;;;12.50;;
55222;SDS011;41090;48.632;12.428;2022-11-15T16:16:34;21.83;;;13.50;;
55222;SDS011;41090;48.632;12.428;2022-11-15T16:18:59;17.30;;;12.93;;
55222;SDS011;41090;48.632;12.428;2022-11-15T16:21:25;18.63;;;14.63;;
55222;SDS011;41090;48.632;12.428;2022-11-15T16:23:53;16.40;;;13.93;;
55222;SDS011;41090;48.632;12.428;2022-11-15T16:26:23;17.43;;;13.33;;
55222;SDS011;41090;48.632;12.428;2022-11-15T16:28:49;19.80;;;15.23;;
55222;SDS011;41090;48.632;12.428;2022-11-15T16:31:14;24.10;;;20.03;;